Terminal Aerodrome Forecast
Issued by NWS

Home | Current Version | Previous Version | Text Only | Print | Product List | Glossary On
Versions: 1 2 3 4 5 6 7 8 9 10 11 12 13 14 15 16 17 18 19 20 21 22 23 24
000
FTUS43 KDDC 231740
TAFHYS
TAF
KHYS 231740Z 2318/2418 17012G20KT P6SM SKC
     FM240000 16011KT P6SM SKC
     FM240700 17008KT P6SM SCT150
     FM240900 20008KT P6SM SCT150 WS020/22040KT
     FM241200 20010KT P6SM SCT140
     FM241400 24010KT P6SM SCT080
     FM241700 28016KT P6SM SCT150=

USA.gov is the U.S. government's official web portal to all federal, state and local government web resources and services.